Time;durP1;ratioP1;P1;durP2;ratioP2;P2;SDS_P1;SDS_P2;PMS_P1;PMS_P2;Temp;Humidity;BMP_temperature;BMP_pressure;BME280_temperature;BME280_humidity;BME280_pressure;Samples;Min_cycle;Max_cycle;Signal;HPM_P1;HPM_P2
2024/01/11 00:00:37;;;;;;;;;120.75;80.75;;;;;-143.90;100.00;78963.56;4851645;28;102416;-70
2024/01/11 00:03:04;;;;;;;;;114.25;89.50;;;;;-143.90;100.00;78973.91;4855593;28;103967;-70
2024/01/11 00:05:31;;;;;;;;;125.00;97.00;;;;;-143.90;100.00;78967.69;4862042;28;103813;-70
2024/01/11 00:07:57;;;;;;;;;106.25;78.75;;;;;-143.90;100.00;79015.28;4861248;28;104617;-70
2024/01/11 00:10:24;;;;;;;;;126.75;98.50;;;;;-143.90;100.00;79027.72;4859995;28;102333;-69
2024/01/11 00:12:51;;;;;;;;;140.50;110.75;;;;;-143.90;100.00;79019.44;4842658;28;104208;-70
2024/01/11 00:15:17;;;;;;;;;98.50;72.00;;;;;-143.90;100.00;79015.28;4858456;28;102843;-70
2024/01/11 00:17:44;;;;;;;;;126.75;96.75;;;;;-143.90;100.00;79044.25;4860510;28;102020;-70
2024/01/11 00:20:11;;;;;;;;;150.00;101.25;;;;;-143.90;100.00;79079.44;4860560;28;102255;-69
2024/01/11 00:22:38;;;;;;;;;134.75;111.25;;;;;-143.90;100.00;79093.94;4857928;28;104217;-71
2024/01/11 00:25:05;;;;;;;;;114.25;77.50;;;;;-143.90;100.00;79079.44;4854259;28;102279;-69
2024/01/11 00:27:32;;;;;;;;;106.00;76.00;;;;;-143.90;100.00;79056.69;4863138;28;102232;-71
2024/01/11 00:29:58;;;;;;;;;120.50;96.00;;;;;-143.90;100.00;79052.53;4867436;28;102588;-70
2024/01/11 00:32:25;;;;;;;;;117.25;80.00;;;;;-143.90;100.00;79052.53;4857936;28;107554;-69
2024/01/11 00:34:52;;;;;;;;;82.50;59.25;;;;;-143.90;100.00;79056.69;4853362;28;104096;-70
2024/01/11 00:37:19;;;;;;;;;82.50;60.50;;;;;-143.90;100.00;79052.53;4858242;28;102926;-70
2024/01/11 00:39:46;;;;;;;;;77.00;54.25;;;;;-143.90;100.00;79048.41;4866033;28;103021;-71
2024/01/11 00:42:12;;;;;;;;;77.25;58.25;;;;;-143.90;100.00;79042.19;4862553;28;104472;-69
2024/01/11 00:44:40;;;;;;;;;80.50;60.50;;;;;-143.90;100.00;79042.19;4860339;28;102715;-71
2024/01/11 00:47:07;;;;;;;;;67.00;43.25;;;;;-143.90;100.00;79038.06;4857991;28;102708;-70
2024/01/11 00:49:34;;;;;;;;;71.00;53.00;;;;;-143.90;100.00;79031.84;4863404;28;102594;-69
2024/01/11 00:52:00;;;;;;;;;57.00;44.00;;;;;-143.90;100.00;79023.56;4853231;28;104180;-70
2024/01/11 00:54:27;;;;;;;;;60.25;48.25;;;;;-143.90;100.00;79019.44;4857692;28;102537;-71
2024/01/11 00:56:54;;;;;;;;;59.00;43.25;;;;;-143.90;100.00;79029.78;4848232;28;102516;-70
2024/01/11 00:59:20;;;;;;;;;53.75;37.50;;;;;-143.90;100.00;79021.50;4861413;28;102484;-70
2024/01/11 01:01:48;;;;;;;;;64.25;47.00;;;;;-143.90;100.00;79015.28;4860264;28;104357;-70
2024/01/11 01:04:15;;;;;;;;;52.75;42.50;;;;;-143.90;100.00;79004.94;4860340;28;102637;-69
2024/01/11 01:06:42;;;;;;;;;66.75;47.75;;;;;-143.90;100.00;78998.72;4850774;28;102660;-69
2024/01/11 01:09:09;;;;;;;;;57.00;35.00;;;;;-143.90;100.00;78986.31;4863857;28;102316;-70
2024/01/11 01:11:36;;;;;;;;;64.75;49.75;;;;;-143.90;100.00;78980.09;4862126;28;104212;-72
2024/01/11 01:14:03;;;;;;;;;56.75;44.00;;;;;-143.90;100.00;78969.75;4861472;28;102168;-70
2024/01/11 01:16:29;;;;;;;;;48.00;39.75;;;;;-143.90;100.00;78961.50;4855181;28;102150;-69
2024/01/11 01:18:56;;;;;;;;;51.75;36.75;;;;;-143.90;100.00;78969.75;4835327;28;102337;-70
2024/01/11 01:21:23;;;;;;;;;64.50;48.75;;;;;-143.90;100.00;78973.91;4858321;28;103751;-69
2024/01/11 01:23:50;;;;;;;;;47.25;37.75;;;;;-143.90;100.00;78978.03;4845205;28;103230;-69
2024/01/11 01:26:16;;;;;;;;;38.00;33.00;;;;;-143.90;100.00;78986.31;4863379;28;102822;-70
2024/01/11 01:28:43;;;;;;;;;153.25;120.75;;;;;-143.90;100.00;79025.63;4851597;28;104603;-69
2024/01/11 01:31:10;;;;;;;;;150.75;123.75;;;;;-143.90;100.00;79029.78;4861644;28;104181;-70
2024/01/11 01:33:36;;;;;;;;;118.00;92.75;;;;;-143.90;100.00;79013.22;4841267;28;102363;-71
2024/01/11 01:36:03;;;;;;;;;123.00;87.25;;;;;-143.90;100.00;79011.16;4842999;28;102345;-69
2024/01/11 01:38:30;;;;;;;;;112.25;80.50;;;;;-143.90;100.00;79015.28;4843243;28;102073;-69
2024/01/11 01:40:57;;;;;;;;;129.75;88.50;;;;;-143.90;100.00;79023.56;4823909;28;104345;-70
2024/01/11 01:43:24;;;;;;;;;108.75;77.50;;;;;-143.90;100.00;79033.91;4841509;28;103354;-70
2024/01/11 01:45:51;;;;;;;;;126.00;99.50;;;;;-143.90;100.00;79040.13;4856043;28;102480;-70
2024/01/11 01:48:18;;;;;;;;;113.25;87.75;;;;;-143.90;100.00;79044.25;4857381;28;102406;-70
2024/01/11 01:50:50;;;;;;;;;97.25;72.25;;;;;-143.90;100.00;79035.97;4840502;28;103948;-70
2024/01/11 01:53:19;;;;;;;;;101.00;71.50;;;;;-143.90;100.00;79050.47;4851848;28;102406;-71
2024/01/11 01:55:47;;;;;;;;;90.75;63.25;;;;;-143.90;100.00;79081.50;4860961;28;104669;-70
2024/01/11 01:58:17;;;;;;;;;108.50;80.25;;;;;-143.90;100.00;79079.44;4860265;28;102315;-70
2024/01/11 02:00:45;;;;;;;;;107.75;73.75;;;;;-143.90;100.00;79064.94;4847134;28;104043;-69
2024/01/11 02:03:14;;;;;;;;;88.25;59.00;;;;;-143.90;100.00;79062.88;4859033;28;102548;-69
2024/01/11 02:05:42;;;;;;;;;92.00;66.75;;;;;-143.90;100.00;79071.16;4865024;28;102088;-70
2024/01/11 02:08:15;;;;;;;;;93.00;63.00;;;;;-143.90;100.00;79087.72;4861605;28;102673;-70
2024/01/11 02:10:42;;;;;;;;;90.75;64.25;;;;;-143.90;100.00;79087.72;4856661;28;109346;-68
2024/01/11 02:13:08;;;;;;;;;93.50;65.75;;;;;-143.90;100.00;79089.78;4861915;28;102386;-69
2024/01/11 02:15:36;;;;;;;;;107.75;77.00;;;;;-143.90;100.00;79091.84;4858875;28;103117;-70
2024/01/11 02:18:03;;;;;;;;;78.00;61.25;;;;;-143.90;100.00;79085.66;4861349;28;105207;-70
2024/01/11 02:20:31;;;;;;;;;90.75;66.25;;;;;-143.90;100.00;79079.44;4863018;28;104313;-71
2024/01/11 02:23:03;;;;;;;;;71.25;54.25;;;;;-143.90;100.00;79069.09;4852513;28;102387;-70
2024/01/11 02:25:30;;;;;;;;;70.00;47.50;;;;;-143.90;100.00;79064.94;4850557;28;102260;-70
2024/01/11 02:27:56;;;;;;;;;89.00;61.00;;;;;-143.90;100.00;79060.81;4851374;28;102542;-69
2024/01/11 02:30:23;;;;;;;;;64.75;47.75;;;;;-143.90;100.00;79056.69;4844684;28;103971;-71
2024/01/11 02:32:51;;;;;;;;;28.75;23.25;;;;;-143.90;100.00;79046.31;4846023;28;102430;-70
2024/01/11 02:35:18;;;;;;;;;153.75;107.00;;;;;-143.90;100.00;79081.50;4857130;28;102451;-69
2024/01/11 02:37:46;;;;;;;;;103.50;75.00;;;;;-143.90;100.00;79073.22;4861357;28;102030;-70
2024/01/11 02:40:14;;;;;;;;;99.75;73.25;;;;;-143.90;100.00;79060.81;4857910;28;103999;-71
2024/01/11 02:42:41;;;;;;;;;155.50;110.75;;;;;-143.90;100.00;79069.09;4844251;28;105054;-70
2024/01/11 02:45:11;;;;;;;;;128.00;96.25;;;;;-143.90;100.00;79073.22;4854150;28;102480;-70
2024/01/11 02:47:38;;;;;;;;;112.00;81.75;;;;;-143.90;100.00;79042.19;4865246;28;103004;-70
2024/01/11 02:50:11;;;;;;;;;76.50;62.00;;;;;-143.90;100.00;79027.72;4861775;28;104234;-70
2024/01/11 02:52:38;;;;;;;;;101.50;73.75;;;;;-143.90;100.00;79021.50;4855423;28;102276;-70
2024/01/11 02:55:05;;;;;;;;;103.00;73.25;;;;;-143.90;100.00;79025.63;4856675;28;101950;-70
2024/01/11 02:57:32;;;;;;;;;81.50;58.50;;;;;-143.90;100.00;79017.34;4860414;28;102447;-70
2024/01/11 02:59:59;;;;;;;;;69.50;51.50;;;;;-143.90;100.00;79015.28;4859820;28;104586;-70
2024/01/11 03:02:25;;;;;;;;;81.25;60.00;;;;;-143.90;100.00;79017.34;4855093;28;102622;-70
2024/01/11 03:04:52;;;;;;;;;79.25;63.25;;;;;-143.90;100.00;79023.56;4847025;28;102622;-70
2024/01/11 03:07:19;;;;;;;;;93.25;71.25;;;;;-143.90;100.00;79040.13;4858710;28;102533;-70
2024/01/11 03:09:45;;;;;;;;;88.25;64.75;;;;;-143.90;100.00;79031.84;4853233;28;104169;-71
2024/01/11 03:12:12;;;;;;;;;76.00;55.75;;;;;-143.90;100.00;79015.28;4856273;28;102384;-69
2024/01/11 03:14:38;;;;;;;;;71.25;54.00;;;;;-143.90;100.00;79009.09;4854876;28;104966;-71
2024/01/11 03:17:05;;;;;;;;;60.50;39.50;;;;;-143.90;100.00;79002.88;4857382;28;102323;-70
2024/01/11 03:19:32;;;;;;;;;60.75;49.00;;;;;-143.90;100.00;79007.00;4854206;28;104173;-71
2024/01/11 03:22:03;;;;;;;;;73.00;55.25;;;;;-143.90;100.00;79015.28;4852172;28;102358;-69
2024/01/11 03:24:29;;;;;;;;;61.75;48.00;;;;;-143.90;100.00;79013.22;4858388;28;102245;-70
2024/01/11 03:26:56;;;;;;;;;66.75;48.25;;;;;-143.90;100.00;79004.94;4847091;28;102298;-71
2024/01/11 03:29:22;;;;;;;;;54.75;43.75;;;;;-143.90;100.00;79011.16;4855309;28;104058;-70
2024/01/11 03:31:49;;;;;;;;;122.00;95.50;;;;;-143.90;100.00;79042.19;4859264;28;104294;-71
2024/01/11 03:34:16;;;;;;;;;100.75;71.75;;;;;-143.90;100.00;79013.22;4850457;28;102445;-70
2024/01/11 03:36:43;;;;;;;;;107.00;75.00;;;;;-143.90;100.00;78998.72;4846856;28;102558;-70
2024/01/11 03:39:10;;;;;;;;;79.00;57.00;;;;;-143.90;100.00;78988.38;4857404;28;105108;-71
2024/01/11 03:41:36;;;;;;;;;68.50;51.75;;;;;-143.90;100.00;78994.59;4849012;28;102251;-69
2024/01/11 03:44:03;;;;;;;;;51.00;33.25;;;;;-143.90;100.00;78998.72;4852087;28;102791;-70
2024/01/11 03:46:30;;;;;;;;;71.75;48.00;;;;;-143.90;100.00;79002.88;4857624;28;102282;-70
2024/01/11 03:48:56;;;;;;;;;59.50;44.00;;;;;-143.90;100.00;78996.66;4847938;28;104241;-70
2024/01/11 03:51:23;;;;;;;;;84.25;57.50;;;;;-143.90;100.00;78994.59;4857273;28;102655;-70
2024/01/11 03:53:50;;;;;;;;;90.75;64.00;;;;;-143.90;100.00;78982.19;4856820;28;103908;-70
2024/01/11 03:56:16;;;;;;;;;65.50;50.75;;;;;-143.90;100.00;78957.34;4854272;28;102587;-71
2024/01/11 03:58:44;;;;;;;;;48.00;42.00;;;;;-143.90;100.00;78944.94;4841828;28;104162;-70
2024/01/11 04:01:11;;;;;;;;;27.25;23.75;;;;;-143.90;100.00;78944.94;4845445;28;102864;-69
2024/01/11 04:03:38;;;;;;;;;33.00;28.50;;;;;-143.90;100.00;78936.66;4851153;28;104236;-70
2024/01/11 04:06:06;;;;;;;;;48.00;33.25;;;;;-143.90;100.00;78928.38;4858310;28;102461;-69
2024/01/11 04:08:33;;;;;;;;;36.75;33.00;;;;;-143.90;100.00;78924.25;4857278;28;103977;-70
2024/01/11 04:11:05;;;;;;;;;37.00;27.75;;;;;-143.90;100.00;78926.31;4844534;28;103316;-71
2024/01/11 04:13:32;;;;;;;;;27.00;22.00;;;;;-143.90;100.00;78926.31;4852402;28;102476;-70
2024/01/11 04:16:04;;;;;;;;;25.25;20.25;;;;;-143.90;100.00;78918.03;4852356;28;102590;-70
2024/01/11 04:18:30;;;;;;;;;27.50;22.50;;;;;-143.90;100.00;78920.09;4849063;28;104041;-71
2024/01/11 04:20:57;;;;;;;;;29.00;19.25;;;;;-143.90;100.00;78934.59;4846074;28;103152;-70
2024/01/11 04:23:24;;;;;;;;;100.75;70.00;;;;;-143.90;100.00;78959.41;4856696;28;102248;-70
2024/01/11 04:25:51;;;;;;;;;101.00;75.00;;;;;-143.90;100.00;78961.50;4856659;28;102425;-70
2024/01/11 04:28:18;;;;;;;;;114.50;80.50;;;;;-143.90;100.00;78932.50;4853675;28;104479;-69
2024/01/11 04:30:45;;;;;;;;;80.25;48.00;;;;;-143.90;100.00;78915.97;4851702;28;102343;-70
2024/01/11 04:33:13;;;;;;;;;73.25;54.25;;;;;-143.90;100.00;78911.81;4857339;28;102544;-69
2024/01/11 04:35:40;;;;;;;;;93.50;68.50;;;;;-143.90;100.00;78928.38;4863760;28;102902;-69
2024/01/11 04:38:06;;;;;;;;;91.00;63.50;;;;;-143.90;100.00;78911.81;4858888;28;103972;-70
2024/01/11 04:40:33;;;;;;;;;68.25;53.00;;;;;-143.90;100.00;78899.41;4842688;28;104906;-69
2024/01/11 04:43:00;;;;;;;;;44.00;34.00;;;;;-143.90;100.00;78889.06;4849255;28;105056;-69
2024/01/11 04:45:26;;;;;;;;;51.25;39.25;;;;;-143.90;100.00;78901.47;4859369;28;102591;-70
2024/01/11 04:47:53;;;;;;;;;72.75;56.75;;;;;-143.90;100.00;78915.97;4857686;28;104146;-70
2024/01/11 04:50:20;;;;;;;;;53.00;46.50;;;;;-143.90;100.00;78903.53;4857782;28;102511;-72
2024/01/11 04:52:48;;;;;;;;;44.25;34.50;;;;;-143.90;100.00;78884.91;4843310;28;102532;-70
2024/01/11 04:55:15;;;;;;;;;37.00;29.50;;;;;-143.90;100.00;78882.84;4858034;28;102025;-71
2024/01/11 04:57:41;;;;;;;;;38.25;35.25;;;;;-143.90;100.00;78884.91;4857610;28;103823;-70
2024/01/11 05:00:08;;;;;;;;;44.25;31.00;;;;;-143.90;100.00;78872.50;4853158;28;104542;-69
2024/01/11 05:02:35;;;;;;;;;40.50;28.25;;;;;-143.90;100.00;78853.88;4859778;28;103393;-69
2024/01/11 05:05:02;;;;;;;;;42.25;35.00;;;;;-143.90;100.00;78847.66;4839473;28;102561;-70
2024/01/11 05:07:29;;;;;;;;;22.75;16.00;;;;;-143.90;100.00;78826.97;4857656;28;104139;-70
2024/01/11 05:09:55;;;;;;;;;22.50;18.75;;;;;-143.90;100.00;78824.91;4859573;28;102328;-69
2024/01/11 05:12:22;;;;;;;;;31.50;24.75;;;;;-143.90;100.00;78816.63;4860325;28;102534;-70
2024/01/11 05:14:49;;;;;;;;;28.25;21.25;;;;;-143.90;100.00;78806.28;4850330;28;102636;-69
2024/01/11 05:17:15;;;;;;;;;20.50;15.00;;;;;-143.90;100.00;78808.34;4860191;28;105025;-69
2024/01/11 05:19:42;;;;;;;;;33.75;32.00;;;;;-143.90;100.00;78798.00;4863069;28;102470;-70
2024/01/11 05:22:09;;;;;;;;;53.50;39.75;;;;;-143.90;100.00;78793.88;4853955;28;102356;-70
2024/01/11 05:24:57;;;;;;;;;32.50;24.50;;;;;-143.90;100.00;78787.66;4856050;28;102628;-69
2024/01/11 05:27:26;;;;;;;;;28.00;21.00;;;;;-143.90;100.00;78779.38;4854507;28;107850;-69
2024/01/11 05:29:53;;;;;;;;;45.50;29.75;;;;;-143.90;100.00;78779.38;4855685;28;103095;-70
2024/01/11 05:32:19;;;;;;;;;64.50;46.50;;;;;-143.90;100.00;78791.81;4858624;28;102466;-70
2024/01/11 05:34:46;;;;;;;;;52.50;41.25;;;;;-143.90;100.00;78781.47;4844618;28;102657;-70
2024/01/11 05:37:13;;;;;;;;;45.25;29.50;;;;;-143.90;100.00;78777.31;4906791;23;103992;-69
2024/01/11 05:39:39;;;;;;;;;57.50;47.50;;;;;-143.90;100.00;78783.53;4859713;28;102561;-70
2024/01/11 05:42:06;;;;;;;;;35.00;27.00;;;;;-143.90;100.00;78769.03;4865139;28;102961;-68
2024/01/11 05:44:33;;;;;;;;;36.25;33.00;;;;;-143.90;100.00;78769.03;4863385;28;102201;-69
2024/01/11 05:47:00;;;;;;;;;28.50;25.25;;;;;-143.90;100.00;78750.41;4849648;28;104165;-70
2024/01/11 05:49:26;;;;;;;;;23.00;20.00;;;;;-143.90;100.00;78735.94;4866014;28;102938;-70
2024/01/11 05:51:53;;;;;;;;;23.25;17.25;;;;;-143.90;100.00;78723.50;4850725;28;102761;-69
2024/01/11 05:54:20;;;;;;;;;24.25;19.50;;;;;-143.90;100.00;78717.31;4861279;28;102398;-69
2024/01/11 05:56:46;;;;;;;;;23.50;15.75;;;;;-143.90;100.00;78729.72;4851936;28;103995;-70
2024/01/11 05:59:13;;;;;;;;;37.25;29.00;;;;;-143.90;100.00;78748.34;4863410;28;102535;-69
2024/01/11 06:01:43;;;;;;;;;46.25;36.75;;;;;-143.90;100.00;78750.41;4859751;28;102656;-70
2024/01/11 06:04:10;;;;;;;;;45.00;34.50;;;;;-143.90;100.00;78746.28;4866562;28;102418;-70
2024/01/11 06:06:37;;;;;;;;;53.50;39.75;;;;;-143.90;100.00;78738.00;4852486;28;104412;-69
2024/01/11 06:09:04;;;;;;;;;66.25;48.25;;;;;-143.90;100.00;78756.63;4860457;28;102331;-67
2024/01/11 06:11:31;;;;;;;;;58.50;52.00;;;;;-143.90;100.00;78760.75;4863850;28;102414;-67
2024/01/11 06:13:58;;;;;;;;;52.50;38.50;;;;;-143.90;100.00;78754.56;4870401;28;102502;-68
2024/01/11 06:16:24;;;;;;;;;38.75;31.50;;;;;-143.90;100.00;78727.66;4870648;28;104113;-68
2024/01/11 06:18:51;;;;;;;;;50.00;39.00;;;;;-143.90;100.00;78746.28;4854336;28;102717;-68
2024/01/11 06:21:18;;;;;;;;;34.25;29.25;;;;;-143.90;100.00;78746.28;4869774;28;104775;-68
2024/01/11 06:23:45;;;;;;;;;37.50;21.75;;;;;-143.90;100.00;78742.13;4871350;28;105099;-68
2024/01/11 06:26:12;;;;;;;;;15.75;15.50;;;;;-143.90;100.00;78738.00;4870177;28;104114;-68
2024/01/11 06:28:38;;;;;;;;;31.75;28.75;;;;;-143.90;100.00;78729.72;4868842;28;102321;-67
2024/01/11 06:31:06;;;;;;;;;18.00;17.00;;;;;-143.90;100.00;78719.38;4861906;28;101911;-67
2024/01/11 06:33:36;;;;;;;;;21.00;17.50;;;;;-143.90;100.00;78727.66;4868498;28;102103;-68
2024/01/11 06:36:10;;;;;;;;;16.75;15.25;;;;;-143.90;100.00;78706.97;4869889;28;104103;-68
2024/01/11 06:38:36;;;;;;;;;20.00;15.50;;;;;-143.90;100.00;78700.75;4857009;28;102682;-67
2024/01/11 06:41:04;;;;;;;;;34.25;25.00;;;;;-143.90;100.00;78684.19;4850516;28;102347;-68
2024/01/11 06:43:30;;;;;;;;;26.00;19.75;;;;;-143.90;100.00;78686.28;4857689;28;102705;-68
2024/01/11 06:46:02;;;;;;;;;29.50;22.25;;;;;-143.90;100.00;78700.75;4857978;28;104032;-68
2024/01/11 06:48:29;;;;;;;;;50.50;40.50;;;;;-143.90;100.00;78700.75;4857477;28;102253;-68
2024/01/11 06:50:56;;;;;;;;;40.00;31.00;;;;;-143.90;100.00;78698.69;4842432;28;102842;-67
2024/01/11 06:53:27;;;;;;;;;52.75;44.00;;;;;-143.90;100.00;78684.19;4852246;28;102210;-68
2024/01/11 06:55:53;;;;;;;;;50.50;44.50;;;;;-143.90;100.00;78665.56;4855798;28;104125;-67
2024/01/11 06:58:23;;;;;;;;;33.00;29.50;;;;;-143.90;100.00;78653.16;4841923;28;102658;-68
2024/01/11 07:00:50;;;;;;;;;49.00;34.75;;;;;-143.90;100.00;78651.09;4845239;28;102148;-68
2024/01/11 07:03:17;;;;;;;;;41.75;33.50;;;;;-143.90;100.00;78634.53;4859660;28;102605;-67
2024/01/11 07:05:44;;;;;;;;;31.50;27.25;;;;;-143.90;100.00;78622.13;4853980;28;104120;-68
2024/01/11 07:08:11;;;;;;;;;41.50;33.50;;;;;-143.90;100.00;78603.50;4861242;28;102717;-67
2024/01/11 07:10:38;;;;;;;;;32.00;27.25;;;;;-143.90;100.00;78589.03;4855321;28;102946;-68
2024/01/11 07:13:06;;;;;;;;;40.75;31.00;;;;;-143.90;100.00;78572.47;4824239;28;102781;-68
2024/01/11 07:15:33;;;;;;;;;47.25;40.25;;;;;-143.90;100.00;78547.63;4848532;28;103976;-68
2024/01/11 07:17:59;;;;;;;;;46.75;37.75;;;;;-143.90;100.00;78514.53;4859267;28;102483;-68
2024/01/11 07:20:26;;;;;;;;;53.00;43.75;;;;;-143.90;100.00;78500.03;4854484;28;101951;-68
2024/01/11 07:22:53;;;;;;;;;52.25;41.25;;;;;-143.90;100.00;78493.84;4849040;28;102296;-68
2024/01/11 07:25:20;;;;;;;;;43.75;33.00;;;;;-143.90;100.00;78473.16;4853391;28;104209;-68
2024/01/11 07:27:46;;;;;;;;;36.75;30.00;;;;;-143.90;100.00;78448.31;4854123;28;102683;-67
2024/01/11 07:30:13;;;;;;;;;51.00;38.50;;;;;-143.90;100.00;78421.41;4850624;28;102291;-67
2024/01/11 07:32:40;;;;;;;;;33.00;29.50;;;;;-143.90;100.00;78390.38;4853312;28;103197;-68
2024/01/11 07:35:10;;;;;;;;;53.00;42.00;;;;;-143.90;100.00;78367.63;4850950;28;103850;-67
2024/01/11 07:37:41;;;;;;;;;42.00;33.25;;;;;-143.90;100.00;78342.78;4852086;28;102501;-67
2024/01/11 07:40:10;;;;;;;;;75.50;54.50;;;;;-143.90;100.00;78355.22;4853560;28;103419;-68
2024/01/11 07:42:38;;;;;;;;;76.50;55.50;;;;;-143.90;100.00;78342.78;4857591;28;102370;-68
2024/01/11 07:45:06;;;;;;;;;67.25;47.50;;;;;-143.90;100.00;78291.06;4844442;28;104170;-68
2024/01/11 07:47:33;;;;;;;;;52.00;41.75;;;;;-143.90;100.00;78241.41;4857068;28;102556;-68
2024/01/11 07:50:00;;;;;;;;;46.25;32.75;;;;;-143.90;100.00;78189.69;4862780;28;104938;-69
2024/01/11 07:52:27;;;;;;;;;50.75;40.25;;;;;-143.90;100.00;78156.59;4856623;28;102586;-67
2024/01/11 07:54:54;;;;;;;;;45.50;35.75;;;;;-143.90;100.00;78123.47;4842697;28;104196;-67
2024/01/11 07:57:21;;;;;;;;;40.25;37.25;;;;;-143.90;100.00;78100.72;4825504;28;104620;-67
2024/01/11 07:59:48;;;;;;;;;64.50;47.50;;;;;-143.90;100.00;78080.03;4836601;28;102030;-69
2024/01/11 08:02:16;;;;;;;;;64.75;48.00;;;;;-143.90;100.00;78038.66;4837420;28;102083;-68
2024/01/11 08:04:42;;;;;;;;;62.00;46.00;;;;;-143.90;100.00;78007.63;4827374;28;104027;-69
2024/01/11 08:07:11;;;;;;;;;49.25;41.00;;;;;-143.90;100.00;77970.38;4830190;28;102445;-67
2024/01/11 08:09:44;;;;;;;;;61.50;47.50;;;;;-143.90;100.00;77951.78;4834997;28;102893;-67
2024/01/11 08:12:13;;;;;;;;;20.00;12.75;;;;;-143.90;100.00;77935.22;4834304;28;102224;-68
2024/01/11 08:14:41;;;;;;;;;57.25;46.25;;;;;-143.90;100.00;77935.22;4826560;28;108488;-67
2024/01/11 08:17:09;;;;;;;;;58.00;47.25;;;;;-143.90;100.00;77922.81;4834036;28;102699;-67
2024/01/11 08:19:35;;;;;;;;;48.00;42.25;;;;;-143.90;100.00;77908.31;4833963;28;102341;-67
2024/01/11 08:22:02;;;;;;;;;47.75;38.00;;;;;-143.90;100.00;77885.56;4839052;28;105026;-69
2024/01/11 08:24:29;;;;;;;;;49.25;38.00;;;;;-143.90;100.00;77873.16;4833374;28;104199;-67
2024/01/11 08:26:55;;;;;;;;;55.00;48.00;;;;;-143.90;100.00;77875.22;4827088;28;105266;-68
2024/01/11 08:29:22;;;;;;;;;72.00;51.75;;;;;-143.90;100.00;77844.19;4830132;28;102439;-68
2024/01/11 08:31:50;;;;;;;;;54.75;47.50;;;;;-143.90;100.00;77813.16;4837306;28;102097;-67
2024/01/11 08:34:17;;;;;;;;;62.50;41.50;;;;;-143.90;100.00;77802.81;4835472;28;103703;-68
2024/01/11 08:36:44;;;;;;;;;49.75;43.00;;;;;-143.90;100.00;77786.25;4823229;28;102470;-66
2024/01/11 08:39:12;;;;;;;;;39.50;32.75;;;;;-143.90;100.00;77769.72;4839612;28;102018;-68
2024/01/11 08:41:38;;;;;;;;;54.75;45.00;;;;;-143.90;100.00;77765.56;4833770;28;102656;-68
2024/01/11 08:44:05;;;;;;;;;53.75;39.75;;;;;-143.90;100.00;77757.31;4839644;28;104202;-67
2024/01/11 08:46:35;;;;;;;;;35.25;30.50;;;;;-143.90;100.00;77740.75;4829307;28;102549;-68
2024/01/11 08:49:05;;;;;;;;;31.50;22.50;;;;;-143.90;100.00;77751.09;4817957;28;102621;-69
2024/01/11 08:51:32;;;;;;;;;45.75;38.00;;;;;-143.90;100.00;77757.31;4835003;28;102244;-67
2024/01/11 08:53:59;;;;;;;;;47.00;38.50;;;;;-143.90;100.00;77765.56;4836736;28;104037;-68
2024/01/11 08:56:25;;;;;;;;;54.00;45.50;;;;;-143.90;100.00;77794.53;4841793;28;102349;-68
2024/01/11 08:58:52;;;;;;;;;58.50;47.50;;;;;-143.90;100.00;77782.13;4827566;28;102402;-68
2024/01/11 09:01:19;;;;;;;;;53.67;43.00;;;;;-143.90;100.00;77767.66;4840332;28;102688;-69
2024/01/11 09:03:47;;;;;;;;;69.00;48.50;;;;;-143.90;100.00;77778.00;4834623;28;104181;-68
2024/01/11 09:06:14;;;;;;;;;58.25;46.50;;;;;-143.90;100.00;77755.22;4841702;28;104614;-68
2024/01/11 09:08:41;;;;;;;;;68.50;49.00;;;;;-143.90;100.00;77722.13;4832338;28;102388;-68
2024/01/11 09:11:10;;;;;;;;;70.75;51.00;;;;;-143.90;100.00;77699.38;4830070;28;102680;-68
2024/01/11 09:13:37;;;;;;;;;52.00;47.00;;;;;-143.90;100.00;77664.22;4818341;28;104045;-67
2024/01/11 09:16:04;;;;;;;;;60.50;49.00;;;;;-143.90;100.00;77639.38;4838228;28;102341;-67
2024/01/11 09:18:30;;;;;;;;;73.00;60.50;;;;;-143.90;100.00;77637.31;4836651;28;102597;-68
2024/01/11 09:20:57;;;;;;;;;84.00;62.00;;;;;-143.90;100.00;77626.97;4828086;28;102504;-68
2024/01/11 09:23:24;;;;;;;;;83.25;58.75;;;;;-143.90;100.00;77626.97;4838746;28;104305;-69
2024/01/11 09:25:51;;;;;;;;;74.75;57.50;;;;;-143.90;100.00;77595.94;4837582;28;102460;-67
2024/01/11 09:28:17;;;;;;;;;81.75;65.25;;;;;-143.90;99.28;77664.22;4839500;28;102228;-68
2024/01/11 09:30:44;;;;;;;;;71.00;60.00;;;;;-143.90;97.40;77666.28;4835717;28;102293;-68
2024/01/11 09:33:11;;;;;;;;;68.25;51.25;;;;;-143.90;97.95;77624.91;4839429;28;108719;-68
2024/01/11 09:35:37;;;;;;;;;64.25;50.50;;;;;-143.90;66.13;77618.69;4837531;28;102526;-68
2024/01/11 09:38:04;;;;;;;;;66.50;49.50;;;;;-143.90;63.34;77633.19;4823120;28;102454;-69
2024/01/11 09:40:31;;;;;;;;;65.25;50.50;;;;;-143.90;61.83;77626.97;4821473;29;102259;-68
2024/01/11 09:42:58;;;;;;;;;53.67;44.00;;;;;-143.90;61.12;77622.84;4803174;29;104254;-69
2024/01/11 09:45:25;;;;;;;;;60.00;47.00;;;;;-143.90;61.95;77610.44;4819124;29;102593;-68
2024/01/11 09:47:54;;;;;;;;;66.67;49.00;;;;;-143.90;59.66;77616.63;4811581;29;102382;-69
2024/01/11 09:50:22;;;;;;;;;63.33;48.33;;;;;-143.90;60.14;77589.75;4823115;29;102589;-69
2024/01/11 09:52:50;;;;;;;;;60.33;47.00;;;;;-143.90;59.71;77585.59;4805178;29;104121;-69
2024/01/11 09:55:17;;;;;;;;;50.33;42.00;;;;;-143.90;59.44;77550.44;4819699;29;104030;-69
2024/01/11 09:57:46;;;;;;;;;69.00;46.67;;;;;-143.90;59.23;77546.28;4816623;29;102163;-68
2024/01/11 10:00:19;;;;;;;;;64.00;48.67;;;;;-143.90;57.71;77556.63;4793855;29;102576;-69
2024/01/11 10:02:46;;;;;;;;;55.33;45.00;;;;;-143.90;57.16;77558.72;4810270;29;108766;-69
2024/01/11 10:05:14;;;;;;;;;66.00;50.33;;;;;-143.90;58.45;77562.84;4821320;29;102274;-69
2024/01/11 10:07:41;;;;;;;;;61.00;47.50;;;;;-143.90;59.97;77542.16;4815493;29;104949;-70
2024/01/11 10:10:08;;;;;;;;;69.00;45.00;;;;;-143.90;58.92;77523.53;4818072;29;102430;-70
2024/01/11 10:12:36;;;;;;;;;66.00;46.33;;;;;-143.90;58.62;77521.47;4812453;29;104191;-69
2024/01/11 10:15:10;;;;;;;;;26.50;10.25;;;;;-143.90;58.62;77529.75;4808545;29;102470;-70
2024/01/11 10:17:47;;;;;;;;;65.75;47.25;;;;;-143.90;58.61;77517.34;4814978;28;102396;-70
2024/01/11 10:20:16;;;;;;;;;71.50;51.25;;;;;-143.90;59.35;77507.00;4818619;29;104003;-68
2024/01/11 10:22:46;;;;;;;;;61.00;46.33;;;;;-143.90;59.72;77482.16;4805839;29;103652;-69
2024/01/11 10:25:15;;;;;;;;;53.33;42.67;;;;;-143.90;58.11;77455.28;4826540;29;102352;-69
2024/01/11 10:27:43;;;;;;;;;65.50;51.75;;;;;-143.90;58.67;77475.97;4812912;29;102503;-70
2024/01/11 10:30:12;;;;;;;;;68.00;47.33;;;;;-143.90;58.59;77455.28;4818371;29;102469;-69
2024/01/11 10:32:39;;;;;;;;;61.67;46.67;;;;;-143.90;58.64;77459.41;4810187;29;108804;-68
2024/01/11 10:35:07;;;;;;;;;51.67;45.00;;;;;-143.90;58.86;77444.94;4810528;29;102310;-69
2024/01/11 10:37:33;;;;;;;;;61.67;47.00;;;;;-143.90;57.60;77459.41;4815189;28;102463;-69
2024/01/11 10:40:09;;;;;;;;;53.00;45.33;;;;;-143.90;57.52;77440.78;4819471;29;101934;-69
2024/01/11 10:42:41;;;;;;;;;48.00;37.33;;;;;-143.90;56.40;77442.88;4811568;29;103996;-70
2024/01/11 10:45:15;;;;;;;;;47.67;30.00;;;;;-143.90;56.03;77438.72;4816296;29;102422;-69
2024/01/11 10:48:07;;;;;;;;;52.33;42.67;;;;;-143.90;56.29;77438.72;4821285;29;102363;-71